Time;durP1;ratioP1;P1;durP2;ratioP2;P2;SDS_P1;SDS_P2;PMS_P1;PMS_P2;Temp;Humidity;BMP_temperature;BMP_pressure;BME280_temperature;BME280_humidity;BME280_pressure;Samples;Min_cycle;Max_cycle;Signal;HPM_P1;HPM_P2
2023/06/20 00:00:54;;;;;;;3.83;3.05;;;;;;;27.30;40.85;101350.22;5043666;28;20131;-31
2023/06/20 00:03:20;;;;;;;6.18;2.83;;;;;;;27.29;40.82;101343.09;5040519;28;20441;-32
2023/06/20 00:05:47;;;;;;;5.72;3.10;;;;;;;27.29;40.68;101343.91;5040629;28;20053;-31
2023/06/20 00:08:14;;;;;;;3.13;2.80;;;;;;;27.28;40.70;101344.13;5041206;28;20094;-32
2023/06/20 00:10:40;;;;;;;3.90;3.00;;;;;;;27.27;40.56;101346.03;5041852;28;20072;-32
2023/06/20 00:13:07;;;;;;;4.55;3.45;;;;;;;27.29;40.73;101343.09;5041038;28;20104;-32
2023/06/20 00:15:34;;;;;;;4.10;2.92;;;;;;;27.27;40.86;101332.41;5040850;28;20065;-32
2023/06/20 00:18:00;;;;;;;3.10;2.75;;;;;;;27.27;40.98;101337.03;5042701;28;20057;-33
2023/06/20 00:20:29;;;;;;;3.78;2.97;;;;;;;27.26;40.87;101335.34;5040128;28;20057;-32
2023/06/20 00:22:56;;;;;;;3.05;2.58;;;;;;;27.26;40.63;101340.78;5041232;28;20480;-32
2023/06/20 00:25:22;;;;;;;3.45;3.15;;;;;;;27.25;40.73;101337.22;5043022;28;20056;-33
2023/06/20 00:27:50;;;;;;;3.38;2.72;;;;;;;27.26;40.91;101335.34;5040506;28;20107;-32
2023/06/20 00:30:16;;;;;;;3.72;3.22;;;;;;;27.24;41.01;101331.97;5038856;28;20057;-32
2023/06/20 00:32:43;;;;;;;3.50;2.90;;;;;;;27.24;41.05;101324.66;5038898;28;20045;-32
2023/06/20 00:35:10;;;;;;;3.65;2.95;;;;;;;27.24;40.87;101319.22;5037959;28;20080;-31
2023/06/20 00:37:38;;;;;;;3.88;2.90;;;;;;;27.23;40.98;101322.97;5039209;28;20058;-32
2023/06/20 00:40:09;;;;;;;4.00;2.85;;;;;;;27.23;40.95;101330.31;5037142;28;20060;-32
2023/06/20 00:42:36;;;;;;;3.63;2.67;;;;;;;27.23;40.99;101325.69;5038771;28;20073;-31
2023/06/20 00:45:03;;;;;;;4.63;3.30;;;;;;;27.22;40.60;101321.31;5035088;28;20045;-32
2023/06/20 00:47:30;;;;;;;3.75;2.83;;;;;;;27.22;40.97;101331.34;5035330;28;20055;-32
2023/06/20 00:49:57;;;;;;;3.97;2.83;;;;;;;27.21;41.14;101327.78;5038198;28;20397;-33
2023/06/20 00:52:25;;;;;;;3.97;3.10;;;;;;;27.21;40.83;101324.22;5034790;28;20448;-32
2023/06/20 00:54:51;;;;;;;3.95;3.00;;;;;;;27.20;41.03;101328.81;5037350;28;20296;-31
2023/06/20 00:57:20;;;;;;;4.22;2.78;;;;;;;27.20;41.20;101330.72;5037639;28;20441;-32
2023/06/20 00:59:48;;;;;;;3.70;2.85;;;;;;;27.20;40.80;101319.81;5037772;28;20045;-32
2023/06/20 01:02:16;;;;;;;4.22;2.80;;;;;;;27.18;40.82;101317.31;5044515;28;20127;-32
2023/06/20 01:04:44;;;;;;;3.20;2.50;;;;;;;27.18;40.97;101319.19;5074882;28;20101;-31
2023/06/20 01:07:18;;;;;;;3.25;2.72;;;;;;;27.17;41.13;101318.34;5081458;28;20380;-30
2023/06/20 01:09:58;;;;;;;3.38;2.50;;;;;;;27.16;41.15;101318.53;5045245;28;20106;-31
2023/06/20 01:12:35;;;;;;;3.08;2.50;;;;;;;27.17;40.71;101314.78;5035314;28;20719;-30
2023/06/20 01:15:24;;;;;;;4.03;2.80;;;;;;;27.15;41.11;101312.28;5034926;28;20049;-30
2023/06/20 01:18:02;;;;;;;3.33;2.85;;;;;;;27.14;40.73;101307.88;5038692;28;20132;-32
2023/06/20 01:20:44;;;;;;;3.50;2.80;;;;;;;27.15;41.06;101314.16;5032112;28;20061;-31
2023/06/20 01:23:23;;;;;;;2.72;2.50;;;;;;;27.14;40.92;101307.88;5038192;28;20060;-30
2023/06/20 01:26:01;;;;;;;3.80;2.65;;;;;;;27.13;40.93;101306.19;5037121;28;20057;-30
2023/06/20 01:28:50;;;;;;;3.97;2.70;;;;;;;27.13;40.90;101305.34;5033758;28;20077;-31
2023/06/20 01:31:22;;;;;;;3.75;3.03;;;;;;;27.14;40.80;101309.75;5031048;28;20064;-31
2023/06/20 01:33:56;;;;;;;3.83;2.80;;;;;;;27.12;41.26;101301.78;5034231;28;20385;-31
2023/06/20 01:36:28;;;;;;;4.88;3.33;;;;;;;27.12;40.97;101303.66;5038451;28;20037;-31
2023/06/20 01:38:58;;;;;;;3.13;2.60;;;;;;;27.10;40.86;101297.53;5036281;28;20038;-30
2023/06/20 01:41:26;;;;;;;3.38;2.78;;;;;;;27.11;41.08;101291.13;5036038;28;20429;-31
2023/06/20 01:43:56;;;;;;;2.97;2.30;;;;;;;27.09;41.24;101293.97;5035622;28;20491;-31
2023/06/20 01:46:24;;;;;;;3.20;2.60;;;;;;;27.08;41.15;101295.03;5036841;28;20053;-32
2023/06/20 01:48:52;;;;;;;3.83;3.22;;;;;;;27.08;41.21;101284.97;5033397;28;20132;-30
2023/06/20 01:51:20;;;;;;;3.25;2.72;;;;;;;27.07;40.96;101282.47;5037057;28;20076;-30
2023/06/20 01:53:48;;;;;;;4.38;2.85;;;;;;;27.07;41.25;101285.19;5038427;28;20525;-30
2023/06/20 01:56:17;;;;;;;2.80;2.50;;;;;;;27.06;41.19;101278.94;5039203;28;20087;-31
2023/06/20 01:58:46;;;;;;;3.67;3.05;;;;;;;27.05;41.24;101269.06;5037742;28;20061;-31
2023/06/20 02:01:14;;;;;;;3.08;2.67;;;;;;;27.04;41.38;101283.72;5045437;28;20103;-31
2023/06/20 02:03:42;;;;;;;3.60;2.88;;;;;;;27.04;41.10;101281.00;5041084;28;20057;-31
2023/06/20 02:06:11;;;;;;;4.13;3.13;;;;;;;27.04;41.02;101275.56;5036664;28;20057;-30
2023/06/20 02:08:39;;;;;;;3.75;2.95;;;;;;;27.03;41.06;101273.03;5043143;28;20103;-31
2023/06/20 02:11:08;;;;;;;3.40;2.95;;;;;;;27.03;41.13;101267.59;5038219;28;20095;-31
2023/06/20 02:13:36;;;;;;;4.85;2.83;;;;;;;27.02;41.27;101271.38;5042508;28;20155;-30
2023/06/20 02:16:07;;;;;;;3.78;2.80;;;;;;;27.01;41.23;101266.94;5037649;28;20060;-30
2023/06/20 02:18:34;;;;;;;3.25;2.95;;;;;;;27.01;41.38;101275.94;5036424;28;20055;-31
2023/06/20 02:21:06;;;;;;;3.80;2.60;;;;;;;27.00;41.10;101260.69;5038591;28;20057;-31
2023/06/20 02:23:34;;;;;;;3.60;2.50;;;;;;;27.01;40.97;101258.78;5039184;28;20141;-31
2023/06/20 02:26:09;;;;;;;4.68;3.33;;;;;;;27.01;40.94;101258.78;5045897;28;20058;-31
2023/06/20 02:28:40;;;;;;;3.80;2.97;;;;;;;26.99;41.27;101264.44;5039183;28;20053;-32
2023/06/20 02:31:10;;;;;;;4.40;3.28;;;;;;;26.99;40.77;101259.00;5047944;28;20054;-31
2023/06/20 02:33:38;;;;;;;4.13;3.03;;;;;;;26.99;41.26;101258.16;5045034;28;20092;-30
2023/06/20 02:36:07;;;;;;;2.90;2.50;;;;;;;26.99;41.12;101259.00;5042041;28;20057;-34
2023/06/20 02:38:34;;;;;;;3.35;2.78;;;;;;;26.99;41.28;101266.34;5047398;28;20045;-32
2023/06/20 02:41:00;;;;;;;2.95;2.65;;;;;;;26.98;40.91;101265.50;5049499;28;20103;-31
2023/06/20 02:43:28;;;;;;;2.70;2.28;;;;;;;26.97;41.32;101266.53;5046604;28;20407;-31
2023/06/20 02:46:09;;;;;;;4.47;2.80;;;;;;;26.96;41.17;101262.13;5049206;28;20049;-30
2023/06/20 02:48:47;;;;;;;3.65;2.90;;;;;;;26.96;41.28;101261.28;5042241;28;20054;-30
2023/06/20 02:51:24;;;;;;;3.40;2.70;;;;;;;26.97;41.02;101262.97;5048113;28;20064;-30
2023/06/20 02:54:09;;;;;;;3.65;2.97;;;;;;;26.96;41.18;101256.69;5046886;28;20081;-31
2023/06/20 02:56:38;;;;;;;3.33;2.80;;;;;;;26.96;41.13;101255.84;5042103;28;20465;-30
2023/06/20 02:59:07;;;;;;;3.22;2.50;;;;;;;26.96;40.93;101251.25;5044796;28;20041;-30
2023/06/20 03:01:37;;;;;;;3.60;2.95;;;;;;;26.96;41.08;101259.41;5057320;28;20103;-31
2023/06/20 03:04:06;;;;;;;3.13;2.67;;;;;;;26.96;40.95;101247.69;5042968;28;20238;-31
2023/06/20 03:06:37;;;;;;;4.00;2.90;;;;;;;26.96;41.12;101253.13;5043868;28;20392;-30
2023/06/20 03:09:04;;;;;;;3.17;2.72;;;;;;;26.95;41.35;101254.19;5043517;28;20187;-30
2023/06/20 03:11:31;;;;;;;3.65;2.60;;;;;;;26.95;41.10;101254.19;5032805;28;20136;-30
2023/06/20 03:13:58;;;;;;;4.00;2.88;;;;;;;26.93;41.17;101243.47;5034576;28;20065;-31
2023/06/20 03:16:26;;;;;;;3.65;3.03;;;;;;;26.94;41.45;101241.63;5035370;28;20132;-31
2023/06/20 03:18:54;;;;;;;4.95;2.67;;;;;;;26.93;41.29;101238.03;5034081;28;20045;-30
2023/06/20 03:21:21;;;;;;;3.70;2.88;;;;;;;26.93;41.12;101234.47;5036666;28;20045;-31
2023/06/20 03:23:55;;;;;;;4.72;3.05;;;;;;;26.92;41.21;101241.81;5037519;28;20041;-31
2023/06/20 03:26:22;;;;;;;3.10;2.70;;;;;;;26.91;41.00;101240.13;5038007;28;20059;-31
2023/06/20 03:28:48;;;;;;;3.60;2.53;;;;;;;26.91;41.38;101231.16;5039073;28;20057;-31
2023/06/20 03:31:15;;;;;;;3.00;2.60;;;;;;;26.91;41.33;101236.59;5039882;28;20057;-31
2023/06/20 03:33:41;;;;;;;4.50;2.70;;;;;;;26.89;41.11;101228.59;5035800;28;20049;-31
2023/06/20 03:36:09;;;;;;;3.28;2.88;;;;;;;26.89;41.30;101236.78;5032977;28;20057;-32
2023/06/20 03:38:37;;;;;;;3.50;2.50;;;;;;;26.89;41.30;101234.03;5039249;28;20128;-33
2023/06/20 03:41:03;;;;;;;3.10;2.38;;;;;;;26.90;40.92;101234.91;5038112;28;20061;-31
2023/06/20 03:43:30;;;;;;;3.40;2.83;;;;;;;26.89;41.34;101239.50;5040297;28;20482;-31
2023/06/20 03:45:56;;;;;;;3.35;2.80;;;;;;;26.89;41.10;101236.78;5034217;28;20092;-31
2023/06/20 03:48:23;;;;;;;3.47;2.83;;;;;;;26.89;40.98;101244.09;5034313;28;20141;-31
2023/06/20 03:50:49;;;;;;;3.08;2.60;;;;;;;26.88;41.01;101242.44;5032754;28;20049;-31
2023/06/20 03:53:16;;;;;;;3.13;2.65;;;;;;;26.88;41.14;101231.53;5044490;28;20041;-31
2023/06/20 03:55:43;;;;;;;2.97;2.63;;;;;;;26.88;41.01;101228.81;5038687;28;20100;-31
2023/06/20 03:58:09;;;;;;;3.05;2.70;;;;;;;26.88;41.52;101232.38;5041837;28;20168;-31
2023/06/20 04:00:36;;;;;;;5.25;2.58;;;;;;;26.88;41.47;101232.38;5040622;28;20394;-31
2023/06/20 04:03:03;;;;;;;3.58;2.88;;;;;;;26.88;41.11;101226.09;5038662;28;20068;-31
2023/06/20 04:05:30;;;;;;;4.40;2.88;;;;;;;26.88;41.41;101226.09;5038666;28;20045;-31
2023/06/20 04:07:56;;;;;;;2.92;2.50;;;;;;;26.87;41.15;101230.72;5041839;28;20136;-31
2023/06/20 04:10:23;;;;;;;4.28;2.60;;;;;;;26.87;41.29;101230.72;5039987;28;20052;-31
2023/06/20 04:12:49;;;;;;;3.10;2.33;;;;;;;26.87;41.24;101232.59;5041439;28;20087;-31
2023/06/20 04:15:16;;;;;;;3.08;2.53;;;;;;;26.86;41.16;101237.19;5042272;28;20141;-31
2023/06/20 04:17:44;;;;;;;3.67;3.00;;;;;;;26.86;41.13;101233.66;5043181;28;20072;-31
2023/06/20 04:20:12;;;;;;;3.55;2.75;;;;;;;26.87;41.37;101243.47;5042980;28;20081;-32
2023/06/20 04:22:44;;;;;;;3.15;2.70;;;;;;;26.86;41.00;101244.53;5043331;28;20045;-31
2023/06/20 04:25:12;;;;;;;3.55;2.92;;;;;;;26.86;41.05;101245.34;5045164;28;20053;-31
2023/06/20 04:27:39;;;;;;;3.97;2.60;;;;;;;26.85;41.04;101246.38;5043768;28;20104;-32
2023/06/20 04:30:06;;;;;;;2.90;2.60;;;;;;;26.85;41.03;101231.94;5041757;28;20091;-31
2023/06/20 04:32:33;;;;;;;3.55;2.83;;;;;;;26.85;41.34;101232.78;5043177;28;20569;-32
2023/06/20 04:35:00;;;;;;;3.15;2.60;;;;;;;26.85;41.32;101232.78;5042232;28;20071;-32
2023/06/20 04:37:29;;;;;;;3.97;3.13;;;;;;;26.85;41.00;101237.38;5041469;28;20091;-33
2023/06/20 04:39:59;;;;;;;3.40;2.55;;;;;;;26.84;41.15;101236.53;5041339;28;20079;-30
2023/06/20 04:42:26;;;;;;;3.97;3.15;;;;;;;26.84;41.15;101236.53;5041525;28;20372;-31
2023/06/20 04:44:52;;;;;;;2.78;2.53;;;;;;;26.84;41.16;101231.09;5039398;28;20081;-32
2023/06/20 04:47:19;;;;;;;3.45;2.72;;;;;;;26.84;41.12;101236.53;5039109;28;20055;-31
2023/06/20 04:49:46;;;;;;;3.20;2.50;;;;;;;26.83;41.15;101235.72;5040188;28;20065;-31
2023/06/20 04:52:13;;;;;;;3.35;2.70;;;;;;;26.85;40.98;101237.38;5036033;28;20053;-31
2023/06/20 04:54:39;;;;;;;3.72;2.80;;;;;;;26.83;41.33;101227.56;5043154;28;20040;-30
2023/06/20 04:57:06;;;;;;;2.88;2.45;;;;;;;26.83;41.27;101226.72;5036914;28;20396;-31
2023/06/20 04:59:35;;;;;;;3.85;2.58;;;;;;;26.84;41.51;101225.66;5041457;28;20123;-31
2023/06/20 05:02:05;;;;;;;3.50;2.58;;;;;;;26.83;41.13;101219.41;5041434;28;20500;-31
2023/06/20 05:04:32;;;;;;;4.03;3.08;;;;;;;26.85;41.08;101221.06;5034396;28;20053;-33
2023/06/20 05:07:00;;;;;;;3.60;2.75;;;;;;;26.85;41.34;101219.19;5033926;28;20428;-31
2023/06/20 05:09:27;;;;;;;3.28;2.88;;;;;;;26.85;41.21;101208.28;5036180;28;20080;-32
2023/06/20 05:11:54;;;;;;;4.15;2.80;;;;;;;26.85;41.00;101205.56;5031392;28;20081;-31
2023/06/20 05:14:24;;;;;;;3.90;2.40;;;;;;;26.88;41.02;101201.63;5036197;28;20517;-30
2023/06/20 05:16:51;;;;;;;2.80;2.25;;;;;;;26.87;41.37;101202.69;5031987;28;20050;-31
2023/06/20 05:19:18;;;;;;;3.67;2.67;;;;;;;26.88;41.06;101207.91;5038378;28;20103;-31
2023/06/20 05:21:44;;;;;;;3.13;2.45;;;;;;;26.87;41.02;101203.50;5035639;28;20099;-31
2023/06/20 05:24:11;;;;;;;4.85;2.90;;;;;;;26.88;40.99;101204.34;5043200;28;20096;-32
2023/06/20 05:26:38;;;;;;;3.40;2.75;;;;;;;26.89;41.23;101206.84;5039409;28;20084;-31
2023/06/20 05:29:04;;;;;;;2.53;2.25;;;;;;;26.89;41.25;101201.41;5036649;28;20084;-31
2023/06/20 05:31:31;;;;;;;3.15;2.63;;;;;;;26.89;41.14;101198.69;5034253;28;20444;-31
2023/06/20 05:33:58;;;;;;;2.60;2.28;;;;;;;26.90;41.06;101196.84;5033536;28;20091;-30
2023/06/20 05:36:25;;;;;;;4.15;2.53;;;;;;;26.90;41.15;101194.94;5036107;28;20349;-32
2023/06/20 05:38:51;;;;;;;3.40;2.80;;;;;;;26.90;41.17;101197.66;5038447;28;20045;-31
2023/06/20 05:41:18;;;;;;;4.00;2.90;;;;;;;26.91;40.84;101193.91;5036430;28;20088;-31
2023/06/20 05:43:44;;;;;;;3.20;2.63;;;;;;;26.92;41.10;101197.44;5037720;28;20038;-31
2023/06/20 05:46:11;;;;;;;3.10;2.40;;;;;;;26.93;40.89;101199.13;5037377;28;20091;-32
2023/06/20 05:48:38;;;;;;;4.25;2.78;;;;;;;26.93;41.09;101197.22;5034492;28;20123;-31
2023/06/20 05:51:04;;;;;;;3.10;2.60;;;;;;;26.94;41.24;101193.50;5045219;28;20384;-31
2023/06/20 05:53:31;;;;;;;2.78;2.45;;;;;;;26.95;40.92;101183.44;5040975;28;20050;-31
2023/06/20 05:55:57;;;;;;;3.50;2.83;;;;;;;26.96;41.03;101185.13;5038398;28;20052;-31
2023/06/20 05:58:24;;;;;;;3.22;2.30;;;;;;;26.96;40.95;101180.50;5038849;28;20162;-32
2023/06/20 06:00:51;;;;;;;3.65;2.58;;;;;;;26.97;41.08;101179.47;5039757;28;20060;-32
2023/06/20 06:03:18;;;;;;;3.00;2.50;;;;;;;26.98;40.71;101183.88;5038877;28;20041;-31
2023/06/20 06:05:46;;;;;;;3.65;2.90;;;;;;;27.00;41.22;101181.78;5043892;28;20579;-31
2023/06/20 06:08:12;;;;;;;3.90;2.78;;;;;;;27.02;40.95;101190.59;5038855;28;20049;-31
2023/06/20 06:10:39;;;;;;;3.25;2.65;;;;;;;27.03;40.64;101185.97;5038517;28;20081;-32
2023/06/20 06:13:06;;;;;;;3.13;2.60;;;;;;;27.03;40.84;101181.38;5038377;28;20408;-31
2023/06/20 06:15:33;;;;;;;3.58;2.72;;;;;;;27.06;40.75;101180.13;5039947;28;20058;-31
2023/06/20 06:18:00;;;;;;;3.17;2.67;;;;;;;27.07;40.82;101181.81;5035524;28;20112;-31
2023/06/20 06:20:29;;;;;;;3.38;2.70;;;;;;;27.08;40.81;101184.31;5038461;28;20049;-31
2023/06/20 06:22:56;;;;;;;4.97;3.15;;;;;;;27.11;40.49;101188.53;5035932;28;20058;-31
2023/06/20 06:25:22;;;;;;;4.32;2.60;;;;;;;27.12;41.11;101184.78;5039561;28;20104;-31
2023/06/20 06:27:49;;;;;;;3.10;2.80;;;;;;;27.14;40.85;101187.31;5033240;28;20084;-31
2023/06/20 06:30:17;;;;;;;3.50;3.00;;;;;;;27.15;40.76;101194.41;5036651;28;20050;-31
2023/06/20 06:32:47;;;;;;;3.20;2.38;;;;;;;27.16;40.52;101190.66;5033167;28;20376;-31
2023/06/20 06:35:16;;;;;;;3.97;2.85;;;;;;;27.17;40.59;101189.59;5032075;28;20045;-31
2023/06/20 06:37:42;;;;;;;3.97;3.22;;;;;;;27.18;40.69;101194.00;5036152;28;20131;-31
2023/06/20 06:40:10;;;;;;;4.47;2.92;;;;;;;27.19;40.89;101195.69;5035347;28;20061;-32
2023/06/20 06:42:37;;;;;;;3.97;3.05;;;;;;;27.20;40.79;101202.78;5033424;28;20077;-31
2023/06/20 06:45:05;;;;;;;4.57;3.45;;;;;;;27.21;40.81;101204.47;5038922;28;20053;-32
2023/06/20 06:47:32;;;;;;;4.32;3.22;;;;;;;27.21;40.70;101194.41;5040538;28;20449;-32
2023/06/20 06:49:58;;;;;;;4.65;3.42;;;;;;;27.23;40.70;101191.50;5050649;28;20057;-31
2023/06/20 06:52:25;;;;;;;3.95;3.20;;;;;;;27.24;40.50;101193.16;5036691;28;20060;-31
2023/06/20 06:54:52;;;;;;;4.65;3.00;;;;;;;27.24;40.51;101183.13;5049721;28;20110;-31
2023/06/20 06:57:18;;;;;;;4.35;3.30;;;;;;;27.24;40.22;101183.13;5047145;28;20361;-31
2023/06/20 06:59:45;;;;;;;3.58;3.03;;;;;;;27.26;40.49;101180.22;5045613;28;20360;-31
2023/06/20 07:02:13;;;;;;;5.20;3.20;;;;;;;27.27;40.18;101190.03;5044651;28;20461;-31
2023/06/20 07:04:40;;;;;;;6.70;4.10;;;;;;;27.28;40.52;101194.44;5046729;28;20103;-31
2023/06/20 07:07:07;;;;;;;7.20;4.10;;;;;;;27.28;40.59;101189.00;5047720;28;20049;-32
2023/06/20 07:09:34;;;;;;;4.65;3.60;;;;;;;27.28;40.19;101173.50;5045485;28;20046;-31
2023/06/20 07:12:00;;;;;;;5.53;3.50;;;;;;;27.29;40.71;101182.50;5033295;28;20093;-32
2023/06/20 07:14:27;;;;;;;5.63;3.88;;;;;;;27.29;40.15;101179.78;5038212;28;20140;-31
2023/06/20 07:16:54;;;;;;;5.00;3.90;;;;;;;27.30;40.78;101170.59;5034545;28;20409;-31
2023/06/20 07:19:31;;;;;;;6.22;3.70;;;;;;;27.31;40.46;101178.53;5035922;28;20053;-31
2023/06/20 07:21:58;;;;;;;4.88;2.97;;;;;;;27.32;40.49;101184.81;5033369;28;20057;-32
2023/06/20 07:24:25;;;;;;;4.78;3.35;;;;;;;27.32;40.09;101171.19;5036581;28;20080;-31
2023/06/20 07:26:51;;;;;;;3.70;3.13;;;;;;;27.33;40.39;101156.53;5036576;28;20053;-31
2023/06/20 07:29:18;;;;;;;4.72;3.15;;;;;;;27.34;39.96;101160.97;5039865;28;20056;-31
2023/06/20 07:31:44;;;;;;;5.55;3.60;;;;;;;27.33;39.99;101153.81;5037011;28;20128;-31
2023/06/20 07:34:11;;;;;;;4.18;3.25;;;;;;;27.35;40.39;101153.63;5037036;28;20373;-31
2023/06/20 07:36:38;;;;;;;5.45;3.58;;;;;;;27.34;40.29;101155.50;5039719;28;20103;-31
2023/06/20 07:39:06;;;;;;;5.55;3.08;;;;;;;27.36;40.12;101158.00;5037959;28;20140;-32
2023/06/20 07:41:32;;;;;;;5.53;3.55;;;;;;;27.36;40.36;101163.47;5037592;28;20095;-31
2023/06/20 07:43:59;;;;;;;6.97;4.15;;;;;;;27.37;40.58;101156.97;5040227;28;20049;-33
2023/06/20 07:46:26;;;;;;;6.32;3.97;;;;;;;27.37;40.34;101155.06;5038110;28;20428;-32
2023/06/20 07:48:52;;;;;;;4.53;3.42;;;;;;;27.37;40.11;101146.91;5038850;28;20136;-31
2023/06/20 07:51:20;;;;;;;4.03;3.38;;;;;;;27.38;40.32;101139.56;5039571;28;20064;-31
2023/06/20 07:53:47;;;;;;;5.18;3.53;;;;;;;27.38;40.21;101145.88;5040519;28;20048;-31
2023/06/20 07:56:14;;;;;;;6.28;3.88;;;;;;;27.38;40.19;101148.59;5034531;28;20053;-31
2023/06/20 07:58:41;;;;;;;4.43;3.65;;;;;;;27.39;40.55;101150.28;5036835;28;20049;-31
2023/06/20 08:01:08;;;;;;;4.57;3.42;;;;;;;27.40;40.56;101154.66;5034874;28;20524;-31
2023/06/20 08:03:34;;;;;;;5.15;3.90;;;;;;;27.40;40.00;101146.50;5037070;28;20072;-31
2023/06/20 08:06:03;;;;;;;6.78;4.32;;;;;;;27.40;40.52;101153.81;5032007;28;20057;-32
2023/06/20 08:08:29;;;;;;;5.20;3.70;;;;;;;27.40;40.53;101151.94;5036535;28;20083;-32
2023/06/20 08:10:56;;;;;;;4.53;3.70;;;;;;;27.41;40.24;101147.31;5034940;28;20057;-32
2023/06/20 08:13:25;;;;;;;4.75;4.00;;;;;;;27.42;40.30;101146.28;5042085;28;20490;-32
2023/06/20 08:15:51;;;;;;;5.20;3.85;;;;;;;27.41;40.12;101148.16;5042433;28;20087;-31
2023/06/20 08:18:18;;;;;;;5.13;3.80;;;;;;;27.42;40.61;101146.28;5042978;28;20053;-32
2023/06/20 08:20:47;;;;;;;7.32;4.60;;;;;;;27.43;40.69;101153.41;5044648;28;20072;-32
2023/06/20 08:23:34;;;;;;;6.15;4.38;;;;;;;27.43;40.23;101150.69;5043303;28;20104;-31
2023/06/20 08:26:00;;;;;;;5.35;4.10;;;;;;;27.44;40.37;101145.03;5046428;28;20151;-31
2023/06/20 08:28:27;;;;;;;5.47;3.88;;;;;;;27.45;40.44;101143.13;5045018;28;20330;-31
2023/06/20 08:30:54;;;;;;;4.95;3.55;;;;;;;27.45;40.28;101134.97;5043680;28;20114;-31
2023/06/20 08:33:21;;;;;;;4.53;3.67;;;;;;;27.45;40.00;101141.25;5044248;28;20136;-31
2023/06/20 08:35:48;;;;;;;5.13;3.45;;;;;;;27.47;40.36;101149.22;5042240;28;20136;-31
2023/06/20 08:38:16;;;;;;;5.60;3.22;;;;;;;27.46;40.38;101153.84;5040695;28;20060;-31
2023/06/20 08:40:42;;;;;;;4.60;3.40;;;;;;;27.47;40.60;101155.50;5043353;28;20064;-32
2023/06/20 08:43:14;;;;;;;4.35;3.60;;;;;;;27.46;40.33;101151.13;5045001;28;20103;-31
2023/06/20 08:45:41;;;;;;;4.57;3.60;;;;;;;27.48;40.58;101149.00;5041876;28;20061;-32
2023/06/20 08:48:09;;;;;;;4.70;3.70;;;;;;;27.49;40.49;101155.28;5042021;28;20507;-33
2023/06/20 08:50:37;;;;;;;6.00;4.00;;;;;;;27.50;40.28;101155.09;5044246;28;20135;-33
2023/06/20 08:53:09;;;;;;;5.25;3.40;;;;;;;27.51;40.24;101153.22;5040835;28;20380;-33
2023/06/20 08:55:39;;;;;;;4.72;3.25;;;;;;;27.51;40.50;101147.75;5042902;28;20064;-33
2023/06/20 08:58:08;;;;;;;4.15;3.20;;;;;;;27.52;40.43;101149.44;5040711;28;20045;-33
2023/06/20 09:00:36;;;;;;;7.20;3.50;;;;;;;27.52;40.17;101147.53;5044125;28;20123;-33
2023/06/20 09:03:03;;;;;;;4.38;3.13;;;;;;;27.54;40.48;101144.63;5040714;28;20496;-33
2023/06/20 09:05:32;;;;;;;4.60;3.50;;;;;;;27.54;40.32;101141.91;5040054;28;20092;-33
2023/06/20 09:07:59;;;;;;;4.93;3.47;;;;;;;27.54;40.72;101134.56;5037264;28;20523;-33
2023/06/20 09:10:26;;;;;;;4.15;3.40;;;;;;;27.56;40.22;101137.06;5039385;28;20080;-34
2023/06/20 09:12:59;;;;;;;4.40;3.75;;;;;;;27.56;40.64;101137.91;5031681;28;20053;-33
2023/06/20 09:15:27;;;;;;;4.40;3.33;;;;;;;27.59;40.49;101135.81;5036272;28;20057;-32
2023/06/20 09:17:56;;;;;;;4.15;3.58;;;;;;;27.60;40.70;101134.78;5032142;28;20049;-32
2023/06/20 09:20:28;;;;;;;5.03;3.30;;;;;;;27.61;40.86;101122.81;5031647;28;20136;-32
2023/06/20 09:22:55;;;;;;;4.18;3.35;;;;;;;27.63;40.55;101123.47;5033401;28;20052;-34
2023/06/20 09:25:25;;;;;;;4.97;3.92;;;;;;;27.65;40.82;101124.91;5042113;28;20123;-33
2023/06/20 09:27:53;;;;;;;5.18;4.05;;;;;;;27.67;41.29;101128.28;5031530;28;20556;-33
2023/06/20 09:30:20;;;;;;;5.63;3.60;;;;;;;27.70;40.84;101124.28;5037902;28;20088;-33
2023/06/20 09:32:51;;;;;;;3.85;3.00;;;;;;;27.72;40.99;101125.75;5032346;28;20060;-32
2023/06/20 09:35:18;;;;;;;3.85;3.10;;;;;;;27.76;41.08;101120.75;5031443;28;20506;-32
2023/06/20 09:37:51;;;;;;;4.43;3.22;;;;;;;27.79;41.28;101123.06;5039286;28;20049;-33
2023/06/20 09:40:20;;;;;;;5.05;3.58;;;;;;;27.80;40.36;101125.56;5039015;28;20470;-33
2023/06/20 09:42:47;;;;;;;5.10;3.08;;;;;;;27.85;41.11;101133.09;5039397;28;20099;-32
2023/06/20 09:45:16;;;;;;;5.63;3.47;;;;;;;27.88;41.13;101132.66;5038618;28;20337;-33
2023/06/20 09:47:44;;;;;;;3.60;3.22;;;;;;;27.91;41.00;101129.53;5036743;28;20344;-33
2023/06/20 09:50:16;;;;;;;4.40;3.80;;;;;;;27.94;41.04;101131.84;5039221;28;20577;-33
2023/06/20 09:52:46;;;;;;;3.97;3.20;;;;;;;27.96;40.46;101127.00;5038237;28;20305;-33
2023/06/20 09:55:15;;;;;;;3.70;3.20;;;;;;;28.00;40.79;101127.41;5039218;28;20041;-33
2023/06/20 09:57:57;;;;;;;4.05;3.13;;;;;;;28.03;41.21;101127.00;5038882;28;20056;-32
2023/06/20 10:00:26;;;;;;;4.68;3.00;;;;;;;28.04;41.25;101126.75;5039236;28;20049;-33
2023/06/20 10:03:00;;;;;;;4.35;3.50;;;;;;;28.08;41.08;101123.63;5040644;28;20477;-33
2023/06/20 10:05:31;;;;;;;3.65;3.00;;;;;;;28.11;40.98;101117.75;5037325;28;20045;-34
2023/06/20 10:07:59;;;;;;;5.30;2.50;;;;;;;28.13;40.56;101130.09;5040928;28;20091;-33
2023/06/20 10:10:26;;;;;;;11.27;3.40;;;;;;;28.15;40.92;101124.44;5039772;28;20053;-34
2023/06/20 10:12:55;;;;;;;3.88;3.33;;;;;;;28.18;40.37;101116.69;5040598;28;20049;-33
2023/06/20 10:15:23;;;;;;;4.43;2.95;;;;;;;28.21;40.95;101109.94;5042381;28;20069;-34
2023/06/20 10:17:49;;;;;;;3.45;3.00;;;;;;;28.23;40.77;101116.88;5039206;28;20338;-33
2023/06/20 10:20:31;;;;;;;5.20;3.13;;;;;;;28.25;40.68;101113.91;5042800;28;20127;-33
2023/06/20 10:23:03;;;;;;;4.20;3.30;;;;;;;28.27;41.03;101109.94;5042999;28;20055;-33
2023/06/20 10:25:30;;;;;;;6.07;3.30;;;;;;;28.31;40.67;101114.97;5040385;28;20330;-33
2023/06/20 10:28:04;;;;;;;3.28;2.63;;;;;;;28.33;40.59;101110.09;5043041;28;20049;-33
2023/06/20 10:30:48;;;;;;;3.50;3.03;;;;;;;28.33;40.76;101100.03;5057374;28;20143;-32
2023/06/20 10:33:37;;;;;;;4.72;3.40;;;;;;;28.36;40.67;101105.09;5041570;28;20139;-34
2023/06/20 10:36:05;;;;;;;4.20;3.28;;;;;;;28.39;40.69;101109.28;5041827;28;20064;-33
2023/06/20 10:38:38;;;;;;;3.63;3.00;;;;;;;28.41;40.42;101102.53;5039693;28;20049;-33
2023/06/20 10:41:12;;;;;;;3.47;3.03;;;;;;;28.44;40.79;101102.13;5043781;28;20049;-33
2023/06/20 10:44:02;;;;;;;4.78;2.90;;;;;;;28.44;40.43;101093.94;5041498;28;20049;-34
2023/06/20 10:46:34;;;;;;;3.80;3.20;;;;;;;28.47;40.85;101090.78;5040973;28;20049;-33
2023/06/20 10:49:05;;;;;;;3.90;3.50;;;;;;;28.50;40.63;101100.41;5037781;28;20437;-33
2023/06/20 10:51:53;;;;;;;3.40;3.00;;;;;;;28.51;40.52;101088.47;5047124;28;20760;-33
2023/06/20 10:54:21;;;;;;;3.33;2.90;;;;;;;28.54;41.09;101088.00;5045674;28;20386;-33
2023/06/20 10:56:48;;;;;;;4.63;3.17;;;;;;;28.56;40.72;101079.63;5039433;28;20092;-33
2023/06/20 10:59:16;;;;;;;4.32;3.20;;;;;;;28.57;41.14;101079.41;5033993;28;20052;-34
2023/06/20 11:01:43;;;;;;;6.90;3.40;;;;;;;28.59;40.93;101080.03;5045777;28;20278;-33
2023/06/20 11:04:12;;;;;;;3.97;3.17;;;;;;;28.61;41.17;101071.63;5044565;28;20719;-34
2023/06/20 11:06:39;;;;;;;3.95;3.17;;;;;;;28.63;40.38;101074.97;5047674;28;20060;-33
2023/06/20 11:09:18;;;;;;;3.88;3.35;;;;;;;28.63;40.29;101061.34;5041240;28;20132;-33
2023/06/20 11:11:46;;;;;;;4.00;3.03;;;;;;;28.65;40.43;101061.94;5072303;28;20081;-33
2023/06/20 11:14:21;;;;;;;3.75;2.83;;;;;;;28.66;40.85;101061.72;5037470;28;20052;-33
2023/06/20 11:16:50;;;;;;;3.40;3.00;;;;;;;28.68;40.66;101061.50;5038957;28;20421;-33
2023/06/20 11:19:20;;;;;;;4.28;3.05;;;;;;;28.68;41.07;101050.59;5034181;28;20098;-33
2023/06/20 11:22:03;;;;;;;4.72;3.42;;;;;;;28.69;40.63;101041.34;5042643;28;20352;-34
2023/06/20 11:24:35;;;;;;;4.40;3.08;;;;;;;28.70;40.43;101045.75;5039539;28;20045;-33
2023/06/20 11:27:13;;;;;;;6.47;3.10;;;;;;;28.70;40.70;101037.56;5038300;28;20061;-34
2023/06/20 11:29:40;;;;;;;4.07;3.50;;;;;;;28.71;40.21;101037.34;5038979;28;20054;-33
2023/06/20 11:32:11;;;;;;;4.28;3.22;;;;;;;28.71;40.74;101031.91;5036304;28;20100;-33